Time;durP1;ratioP1;P1;durP2;ratioP2;P2;SDS_P1;SDS_P2;PMS_P1;PMS_P2;Temp;Humidity;BMP_temperature;BMP_pressure;BME280_temperature;BME280_humidity;BME280_pressure;Samples;Min_cycle;Max_cycle;Signal;HPM_P1;HPM_P2
2023/11/24 00:01:51;;;;;;;0.00;0.00;;;;;;;10.64;100.00;101055.00;4833504;29;21378;-74
2023/11/24 00:04:16;;;;;;;0.00;0.00;;;;;;;10.36;100.00;101036.81;4845514;29;20403;-75
2023/11/24 00:06:44;;;;;;;0.00;0.00;;;;;;;10.45;100.00;101058.03;4815220;29;20036;-75
2023/11/24 00:09:13;;;;;;;0.00;0.00;;;;;;;10.41;100.00;101064.22;4847248;29;20101;-74
2023/11/24 00:11:42;;;;;;;0.00;0.00;;;;;;;10.23;100.00;101033.28;4832548;29;20029;-76
2023/11/24 00:14:11;;;;;;;0.00;0.00;;;;;;;10.23;100.00;101041.50;4834060;29;20029;-75
2023/11/24 00:16:40;;;;;;;0.10;0.10;;;;;;;10.29;100.00;101043.25;4832819;29;20030;-75
2023/11/24 00:19:10;;;;;;;0.00;0.00;;;;;;;10.33;100.00;101048.22;4836185;29;20365;-75
2023/11/24 00:21:38;;;;;;;0.00;0.00;;;;;;;10.29;100.00;101048.72;4821270;29;20121;-75
2023/11/24 00:24:04;;;;;;;0.00;0.00;;;;;;;10.35;100.00;101078.88;4828819;29;20053;-74
2023/11/24 00:26:35;;;;;;;0.00;0.00;;;;;;;10.10;100.00;101066.41;4845223;29;20413;-73
2023/11/24 00:29:01;;;;;;;0.00;0.00;;;;;;;10.08;100.00;101069.41;4813743;29;20045;-74
2023/11/24 00:31:26;;;;;;;0.00;0.00;;;;;;;10.20;100.00;101093.91;4835039;29;20166;-73
2023/11/24 00:33:55;;;;;;;0.00;0.00;;;;;;;10.10;100.00;101067.25;4832000;29;20492;-75
2023/11/24 00:36:22;;;;;;;0.10;0.10;;;;;;;10.21;100.00;101079.19;4834933;29;20117;-74
2023/11/24 00:38:50;;;;;;;0.00;0.00;;;;;;;10.18;100.00;101066.03;4832979;29;20026;-75
2023/11/24 00:41:17;;;;;;;0.00;0.00;;;;;;;10.17;100.00;101060.81;4851236;29;20034;-73
2023/11/24 00:43:44;;;;;;;0.00;0.00;;;;;;;10.14;100.00;101064.84;4830999;29;20075;-77
2023/11/24 00:46:10;;;;;;;0.00;0.00;;;;;;;10.09;100.00;101059.28;4833694;29;20036;-76
2023/11/24 00:48:37;;;;;;;0.00;0.00;;;;;;;10.02;100.00;101043.06;4842209;29;20030;-76
2023/11/24 00:51:02;;;;;;;0.00;0.00;;;;;;;10.05;100.00;101047.22;4833783;29;20029;-76
2023/11/24 00:53:27;;;;;;;0.00;0.00;;;;;;;10.07;100.00;101050.50;4832336;29;20555;-75
2023/11/24 00:55:54;;;;;;;0.00;0.00;;;;;;;10.05;100.00;101069.06;4814537;29;20457;-76
2023/11/24 00:58:19;;;;;;;0.00;0.00;;;;;;;10.04;100.00;101056.47;4831230;29;20026;-76
2023/11/24 01:00:44;;;;;;;0.00;0.00;;;;;;;9.97;100.00;101045.69;4834345;29;20037;-75
2023/11/24 01:03:10;;;;;;;0.00;0.00;;;;;;;9.91;100.00;101042.03;4812123;29;20086;-76
2023/11/24 01:05:36;;;;;;;0.00;0.00;;;;;;;9.99;100.00;101070.03;4827409;29;20113;-77
2023/11/24 01:08:01;;;;;;;0.00;0.00;;;;;;;9.92;100.00;101087.41;4832130;29;20078;-74
2023/11/24 01:10:28;;;;;;;0.00;0.00;;;;;;;9.83;100.00;101083.44;4826067;29;20061;-77
2023/11/24 01:12:53;;;;;;;0.00;0.00;;;;;;;9.74;100.00;101079.47;4830939;29;20492;-76
2023/11/24 01:15:20;;;;;;;0.00;0.00;;;;;;;9.68;100.00;101081.25;4839717;29;20030;-75
2023/11/24 01:17:45;;;;;;;0.00;0.00;;;;;;;9.70;100.00;101083.75;4853004;29;20128;-75
2023/11/24 01:20:11;;;;;;;0.00;0.00;;;;;;;9.65;100.00;101080.91;4830035;29;20057;-81
2023/11/24 01:22:37;;;;;;;0.00;0.00;;;;;;;9.65;100.00;101083.63;4844376;29;20133;-77
2023/11/24 01:25:04;;;;;;;0.00;0.00;;;;;;;9.65;100.00;101080.91;4852934;29;20056;-76
2023/11/24 01:27:30;;;;;;;0.00;0.00;;;;;;;9.67;100.00;101084.25;4834288;29;20041;-76
2023/11/24 01:29:55;;;;;;;0.00;0.00;;;;;;;9.52;100.00;101066.47;4830694;29;20045;-76
2023/11/24 01:32:21;;;;;;;0.00;0.00;;;;;;;9.75;100.00;101076.47;4830448;29;20030;-76
2023/11/24 01:34:46;;;;;;;0.00;0.00;;;;;;;9.81;100.00;101080.09;4831808;29;20439;-79
2023/11/24 01:37:13;;;;;;;0.00;0.00;;;;;;;9.81;100.00;101069.19;4831481;29;20065;-76
2023/11/24 01:39:39;;;;;;;0.00;0.00;;;;;;;9.79;100.00;101063.97;4848137;29;20033;-79
2023/11/24 01:42:04;;;;;;;0.00;0.00;;;;;;;9.79;100.00;101080.34;4849015;29;20090;-78
2023/11/24 01:44:30;;;;;;;0.00;0.00;;;;;;;9.86;100.00;101093.88;4832125;29;20484;-78
2023/11/24 01:46:55;;;;;;;0.00;0.00;;;;;;;9.82;100.00;101097.34;4866157;29;20476;-77
2023/11/24 01:49:22;;;;;;;0.00;0.00;;;;;;;9.73;100.00;101111.38;4854439;29;20085;-78
2023/11/24 01:51:53;;;;;;;0.00;0.00;;;;;;;9.64;100.00;101106.53;4851692;29;20051;-78
2023/11/24 01:54:19;;;;;;;0.00;0.00;;;;;;;9.58;100.00;101098.25;4836002;29;20037;-77
2023/11/24 01:56:46;;;;;;;0.00;0.00;;;;;;;9.35;100.00;101099.16;4851705;29;20045;-76
2023/11/24 01:59:13;;;;;;;0.00;0.00;;;;;;;9.22;100.00;101089.34;4850504;29;20025;-76
2023/11/24 02:01:39;;;;;;;0.00;0.00;;;;;;;9.08;100.00;101077.88;4846931;29;20037;-76
2023/11/24 02:04:05;;;;;;;0.00;0.00;;;;;;;9.02;100.00;101081.56;4855567;29;20026;-77
2023/11/24 02:06:31;;;;;;;0.00;0.00;;;;;;;8.96;100.00;101092.59;4835805;29;21336;-73
2023/11/24 02:08:57;;;;;;;0.00;0.00;;;;;;;8.85;100.00;101084.19;4838735;29;20022;-73
2023/11/24 02:11:23;;;;;;;0.00;0.00;;;;;;;8.85;100.00;101095.09;4852414;29;20013;-73
2023/11/24 02:13:49;;;;;;;0.00;0.00;;;;;;;8.82;100.00;101090.13;4854277;29;20028;-74
2023/11/24 02:16:15;;;;;;;0.00;0.00;;;;;;;8.62;100.00;101073.28;4855917;29;20044;-74
2023/11/24 02:18:40;;;;;;;0.00;0.00;;;;;;;8.67;100.00;101092.47;4855780;29;20097;-74
2023/11/24 02:21:06;;;;;;;0.00;0.00;;;;;;;8.66;100.00;101082.63;4849421;29;20038;-73
2023/11/24 02:23:34;;;;;;;0.00;0.00;;;;;;;8.56;100.00;101075.06;4851825;29;20045;-74
2023/11/24 02:26:01;;;;;;;0.00;0.00;;;;;;;8.55;100.00;101079.66;4844857;29;20050;-74
2023/11/24 02:28:26;;;;;;;0.00;0.00;;;;;;;8.50;100.00;101071.38;4850846;29;20026;-73
2023/11/24 02:30:52;;;;;;;0.00;0.00;;;;;;;8.36;100.00;101069.91;4855959;29;20165;-75
2023/11/24 02:33:19;;;;;;;0.00;0.00;;;;;;;8.41;100.00;101088.28;4854080;29;20036;-74
2023/11/24 02:35:45;;;;;;;0.00;0.00;;;;;;;8.35;100.00;101074.56;4834728;29;20029;-74
2023/11/24 02:38:11;;;;;;;0.05;0.05;;;;;;;8.27;100.00;101058.53;4855175;29;20120;-74
2023/11/24 02:40:38;;;;;;;0.00;0.00;;;;;;;8.35;100.00;101073.69;4861910;29;20080;-75
2023/11/24 02:43:04;;;;;;;0.00;0.00;;;;;;;8.23;100.00;101048.34;4853696;29;20507;-76
2023/11/24 02:45:29;;;;;;;0.00;0.00;;;;;;;8.26;100.00;101051.41;4864231;29;20136;-75
2023/11/24 02:47:55;;;;;;;0.00;0.00;;;;;;;8.30;100.00;101049.88;4851981;29;20026;-74
2023/11/24 02:50:22;;;;;;;0.00;0.00;;;;;;;8.29;100.00;101036.50;4833119;29;20396;-76
2023/11/24 02:52:49;;;;;;;0.00;0.00;;;;;;;8.27;100.00;101033.19;4831070;29;20033;-75
2023/11/24 02:55:15;;;;;;;0.00;0.00;;;;;;;8.08;100.00;101006.03;4858442;29;20036;-75
2023/11/24 02:57:41;;;;;;;0.00;0.00;;;;;;;8.16;100.00;101038.41;4851677;29;20495;-75
2023/11/24 03:00:08;;;;;;;0.00;0.00;;;;;;;8.07;100.00;101030.78;4848227;29;20041;-74
2023/11/24 03:02:33;;;;;;;0.00;0.00;;;;;;;7.98;100.00;101013.97;4845116;29;20112;-75
2023/11/24 03:04:58;;;;;;;0.00;0.00;;;;;;;7.83;100.00;101007.06;4849704;29;20037;-74
2023/11/24 03:07:24;;;;;;;0.00;0.00;;;;;;;7.83;100.00;101031.56;4848355;29;20025;-74
2023/11/24 03:09:50;;;;;;;0.00;0.00;;;;;;;7.69;100.00;101033.66;4848584;29;20030;-73
2023/11/24 03:12:16;;;;;;;0.00;0.00;;;;;;;7.59;100.00;101051.59;4836556;29;20076;-74
2023/11/24 03:14:42;;;;;;;0.00;0.00;;;;;;;7.59;100.00;101060.59;4853242;29;20485;-74
2023/11/24 03:17:11;;;;;;;0.00;0.00;;;;;;;7.61;100.00;101063.13;4846204;29;20377;-75
2023/11/24 03:19:36;;;;;;;0.00;0.00;;;;;;;7.56;100.00;101060.25;4849333;29;20042;-74
2023/11/24 03:22:04;;;;;;;0.00;0.00;;;;;;;7.61;100.00;101069.38;4869504;29;20034;-75
2023/11/24 03:24:29;;;;;;;0.00;0.00;;;;;;;7.66;100.00;101061.31;4856940;29;20030;-75
2023/11/24 03:26:55;;;;;;;0.00;0.00;;;;;;;7.72;100.00;101051.41;4833469;29;20044;-74
2023/11/24 03:29:20;;;;;;;0.00;0.00;;;;;;;7.73;100.00;101039.47;4853233;29;20502;-74
2023/11/24 03:31:46;;;;;;;0.10;0.10;;;;;;;7.84;100.00;101051.44;4871867;29;20112;-76
2023/11/24 03:34:11;;;;;;;0.00;0.00;;;;;;;7.80;100.00;101050.28;4876758;29;20033;-74
2023/11/24 03:36:37;;;;;;;0.00;0.00;;;;;;;7.82;99.47;101050.84;4868499;29;20113;-75
2023/11/24 03:39:03;;;;;;;0.00;0.00;;;;;;;7.78;98.88;101045.06;4854598;29;20040;-74
2023/11/24 03:41:28;;;;;;;0.00;0.00;;;;;;;7.71;98.73;101049.78;4863968;29;20034;-75
2023/11/24 03:43:54;;;;;;;0.00;0.00;;;;;;;7.60;98.85;101034.22;4866481;29;20033;-75
2023/11/24 03:46:20;;;;;;;0.00;0.00;;;;;;;7.55;98.38;101026.75;4838899;29;20048;-75
2023/11/24 03:48:46;;;;;;;0.00;0.00;;;;;;;7.48;98.02;101026.84;4845853;29;20040;-75
2023/11/24 03:51:11;;;;;;;0.00;0.00;;;;;;;7.42;97.65;101016.88;4853296;29;20395;-74
2023/11/24 03:53:37;;;;;;;0.00;0.00;;;;;;;7.38;98.02;101014.84;4850762;29;20495;-74
2023/11/24 03:56:04;;;;;;;0.00;0.00;;;;;;;7.39;97.73;101021.94;4872076;29;20049;-75
2023/11/24 03:58:29;;;;;;;0.00;0.00;;;;;;;7.30;97.30;101019.56;4869838;29;20025;-73
2023/11/24 04:00:55;;;;;;;0.00;0.00;;;;;;;7.30;97.50;101022.28;4855797;29;20051;-73
2023/11/24 04:03:20;;;;;;;0.00;0.00;;;;;;;7.26;97.33;101017.53;4868394;29;20112;-74
2023/11/24 04:05:47;;;;;;;0.10;0.10;;;;;;;7.26;97.15;101033.84;4848311;29;20037;-74
2023/11/24 04:08:14;;;;;;;0.00;0.00;;;;;;;7.06;97.35;101018.59;4850185;29;20036;-74
2023/11/24 04:10:39;;;;;;;0.10;0.10;;;;;;;7.09;97.15;101042.59;4862154;29;20093;-74
2023/11/24 04:13:05;;;;;;;0.00;0.00;;;;;;;7.03;97.14;101035.38;4853424;29;20506;-73
2023/11/24 04:15:30;;;;;;;0.00;0.00;;;;;;;7.06;96.74;101044.97;4869458;29;20100;-74
2023/11/24 04:18:03;;;;;;;0.00;0.00;;;;;;;7.08;95.85;101035.53;4854499;29;20029;-75
2023/11/24 04:20:28;;;;;;;0.00;0.00;;;;;;;7.08;95.44;101032.81;4839616;29;20100;-74
2023/11/24 04:22:53;;;;;;;0.00;0.00;;;;;;;7.02;95.43;101033.69;4853942;29;20029;-73
2023/11/24 04:25:19;;;;;;;0.00;0.00;;;;;;;7.01;95.40;101031.22;4860191;29;20392;-75
2023/11/24 04:27:47;;;;;;;0.00;0.00;;;;;;;6.97;95.12;101030.84;4851088;29;20061;-75
2023/11/24 04:30:16;;;;;;;0.00;0.00;;;;;;;6.94;95.09;101031.31;4807020;29;20037;-75
2023/11/24 04:32:41;;;;;;;0.00;0.00;;;;;;;6.73;95.29;101003.50;4850499;29;20036;-75
2023/11/24 04:35:24;;;;;;;0.00;0.00;;;;;;;6.72;95.49;101017.34;4846025;29;20030;-74
2023/11/24 04:37:50;;;;;;;0.00;0.00;;;;;;;6.63;95.81;101019.53;4831512;29;20033;-74
2023/11/24 04:40:18;;;;;;;0.00;0.00;;;;;;;6.66;96.09;101035.38;4830596;29;20120;-76
2023/11/24 04:42:44;;;;;;;0.00;0.00;;;;;;;6.69;96.19;101021.31;4846743;29;20697;-74
2023/11/24 04:45:11;;;;;;;0.00;0.00;;;;;;;6.64;96.33;101004.84;4866851;29;20069;-74
2023/11/24 04:47:39;;;;;;;0.00;0.00;;;;;;;6.60;96.12;100984.59;4855803;29;20120;-76
2023/11/24 04:50:06;;;;;;;0.00;0.00;;;;;;;6.73;95.83;101003.50;4854596;29;20043;-76
2023/11/24 04:52:34;;;;;;;0.00;0.00;;;;;;;6.61;95.62;100997.16;4860980;29;20038;-74
2023/11/24 04:55:00;;;;;;;0.00;0.00;;;;;;;6.58;95.55;100984.03;4853441;29;20477;-74
2023/11/24 04:57:25;;;;;;;0.00;0.00;;;;;;;6.60;95.69;100990.03;4836162;29;20102;-74
2023/11/24 04:59:51;;;;;;;0.00;0.00;;;;;;;6.53;95.10;100954.00;4853610;29;20037;-75
2023/11/24 05:02:16;;;;;;;0.00;0.00;;;;;;;6.69;95.48;100971.56;4866722;29;20090;-76
2023/11/24 05:04:42;;;;;;;0.00;0.00;;;;;;;6.75;95.36;100974.22;4853487;29;20034;-75
2023/11/24 05:07:09;;;;;;;0.00;0.00;;;;;;;6.60;94.64;100954.72;4850782;29;20037;-75
2023/11/24 05:09:36;;;;;;;0.00;0.00;;;;;;;6.65;94.22;100968.47;4829291;29;20030;-75
2023/11/24 05:12:01;;;;;;;0.00;0.00;;;;;;;6.52;94.99;100969.44;4845880;29;20033;-75
2023/11/24 05:14:27;;;;;;;0.00;0.00;;;;;;;6.64;94.70;100993.97;4852144;29;20447;-74
2023/11/24 05:16:52;;;;;;;0.00;0.00;;;;;;;6.56;94.56;100989.69;4857537;29;20029;-73
2023/11/24 05:19:17;;;;;;;0.00;0.00;;;;;;;6.64;94.14;100999.41;4836395;29;20485;-73
2023/11/24 05:21:43;;;;;;;0.00;0.00;;;;;;;6.61;94.40;100984.41;4854215;29;20060;-73
2023/11/24 05:24:09;;;;;;;0.00;0.00;;;;;;;6.63;93.45;100984.19;4836896;29;20093;-74
2023/11/24 05:26:34;;;;;;;0.00;0.00;;;;;;;6.66;92.51;100978.28;4840183;29;20065;-74
2023/11/24 05:29:00;;;;;;;0.00;0.00;;;;;;;6.69;92.41;100980.56;4852328;29;20029;-74
2023/11/24 05:31:25;;;;;;;0.00;0.00;;;;;;;6.67;91.64;100985.38;4848373;29;20033;-74
2023/11/24 05:33:51;;;;;;;0.00;0.00;;;;;;;6.59;91.46;100980.25;4835425;29;20112;-73
2023/11/24 05:36:21;;;;;;;0.00;0.00;;;;;;;6.58;91.44;100973.16;4851343;29;20128;-74
2023/11/24 05:38:46;;;;;;;0.00;0.00;;;;;;;6.52;91.60;100974.06;4857487;29;20014;-74
2023/11/24 05:41:14;;;;;;;0.00;0.00;;;;;;;6.51;91.43;100991.41;4851660;29;20048;-74
2023/11/24 05:43:39;;;;;;;0.00;0.00;;;;;;;6.42;91.67;100997.13;4871755;29;20033;-75
2023/11/24 05:46:06;;;;;;;0.00;0.00;;;;;;;6.39;91.11;100983.19;4853091;29;20711;-74
2023/11/24 05:48:32;;;;;;;0.00;0.00;;;;;;;6.35;91.18;100985.53;4833524;29;20030;-73
2023/11/24 05:50:58;;;;;;;0.00;0.00;;;;;;;6.36;91.69;100984.44;4851122;29;20124;-72
2023/11/24 05:53:24;;;;;;;0.00;0.00;;;;;;;6.26;91.67;100974.13;4856044;29;20033;-73
2023/11/24 05:55:49;;;;;;;0.00;0.00;;;;;;;6.22;91.56;100983.75;4859579;29;20029;-73
2023/11/24 05:58:15;;;;;;;0.10;0.10;;;;;;;6.30;91.56;100998.94;4855660;29;20038;-75
2023/11/24 06:00:45;;;;;;;0.00;0.00;;;;;;;6.23;91.82;100985.41;4855449;29;20800;-73
2023/11/24 06:03:11;;;;;;;0.00;0.00;;;;;;;6.26;91.69;100992.28;4857173;29;20457;-74
2023/11/24 06:05:36;;;;;;;0.10;0.10;;;;;;;6.20;91.93;100990.47;4856381;29;20377;-77
2023/11/24 06:08:04;;;;;;;0.10;0.10;;;;;;;6.25;91.77;100996.88;4830440;29;20395;-77
2023/11/24 06:10:30;;;;;;;0.00;0.00;;;;;;;6.23;90.94;100992.72;4851852;29;20737;-76
2023/11/24 06:12:56;;;;;;;0.00;0.00;;;;;;;6.23;90.96;101003.59;4848859;29;20041;-76
2023/11/24 06:15:23;;;;;;;0.00;0.00;;;;;;;6.14;91.03;100991.34;4855660;29;20029;-76
2023/11/24 06:17:49;;;;;;;0.00;0.00;;;;;;;6.03;90.82;100982.88;4836129;29;20064;-76
2023/11/24 06:20:18;;;;;;;0.00;0.00;;;;;;;5.90;91.16;100975.66;4850715;29;20026;-77
2023/11/24 06:22:47;;;;;;;0.00;0.00;;;;;;;5.99;91.02;100995.25;4852177;29;20505;-76
2023/11/24 06:25:13;;;;;;;0.00;0.00;;;;;;;5.92;91.06;100970.00;4849593;29;20053;-75
2023/11/24 06:27:39;;;;;;;0.00;0.00;;;;;;;6.11;91.47;100979.06;4876921;29;20037;-78
2023/11/24 06:30:06;;;;;;;0.00;0.00;;;;;;;6.06;91.26;100973.44;4854479;29;20104;-78
2023/11/24 06:32:32;;;;;;;0.00;0.00;;;;;;;6.19;90.20;100980.66;4850968;29;20089;-78
2023/11/24 06:34:58;;;;;;;0.00;0.00;;;;;;;6.15;90.21;100958.53;4838758;29;20032;-78
2023/11/24 06:37:24;;;;;;;0.10;0.10;;;;;;;6.10;89.82;100956.50;4854792;29;20468;-76
2023/11/24 06:39:49;;;;;;;0.00;0.00;;;;;;;6.04;89.58;100941.09;4872898;29;20037;-77
2023/11/24 06:42:15;;;;;;;0.00;0.00;;;;;;;6.13;89.37;100954.38;4854520;29;20891;-77
2023/11/24 06:44:40;;;;;;;0.00;0.00;;;;;;;6.14;89.02;100956.88;4874108;29;20033;-77
2023/11/24 06:47:06;;;;;;;0.10;0.10;;;;;;;6.20;89.96;100972.28;4853939;29;20049;-77
2023/11/24 06:49:32;;;;;;;0.10;0.10;;;;;;;6.20;89.68;100972.28;4871563;29;20062;-77
2023/11/24 06:52:01;;;;;;;0.00;0.00;;;;;;;6.21;88.62;100973.13;4844216;29;20093;-75
2023/11/24 06:54:26;;;;;;;0.00;0.00;;;;;;;6.10;89.25;100967.38;4871941;29;20360;-77
2023/11/24 06:56:51;;;;;;;0.00;0.00;;;;;;;6.19;89.40;100980.66;4836720;29;20140;-76
2023/11/24 06:59:17;;;;;;;0.10;0.10;;;;;;;6.05;89.66;100959.03;4875004;29;20518;-74
2023/11/24 07:01:42;;;;;;;0.00;0.00;;;;;;;6.16;89.04;100981.09;4849288;29;21127;-76
2023/11/24 07:04:08;;;;;;;0.00;0.00;;;;;;;6.19;89.26;100986.06;4843200;29;20060;-77
2023/11/24 07:06:35;;;;;;;0.00;0.00;;;;;;;6.19;89.53;100969.78;4871848;29;20060;-77
2023/11/24 07:09:01;;;;;;;0.00;0.00;;;;;;;6.13;88.86;100954.38;4857049;29;20043;-76
2023/11/24 07:11:29;;;;;;;0.00;0.00;;;;;;;6.20;89.07;100961.41;4853976;29;20387;-75
2023/11/24 07:13:54;;;;;;;0.05;0.05;;;;;;;6.25;88.86;100975.16;4840496;29;20441;-76
2023/11/24 07:16:20;;;;;;;0.00;0.00;;;;;;;6.33;88.67;100982.19;4825880;29;20051;-78
2023/11/24 07:18:45;;;;;;;0.00;0.00;;;;;;;6.28;88.99;100979.31;4871902;29;20048;-79
2023/11/24 07:21:11;;;;;;;0.00;0.00;;;;;;;6.26;88.94;100975.97;4850481;29;20061;-78
2023/11/24 07:23:37;;;;;;;0.00;0.00;;;;;;;6.30;88.96;100990.78;4854140;29;20453;-75
2023/11/24 07:26:07;;;;;;;0.10;0.10;;;;;;;6.17;87.66;100977.34;4869619;29;20152;-77
2023/11/24 07:28:38;;;;;;;0.10;0.10;;;;;;;6.20;87.73;100982.31;4840982;29;20089;-74
2023/11/24 07:31:04;;;;;;;0.00;0.00;;;;;;;6.20;86.76;100982.31;4865308;29;20039;-75
2023/11/24 07:33:31;;;;;;;0.00;0.00;;;;;;;6.10;87.09;100966.50;4847736;29;20036;-75
2023/11/24 07:35:56;;;;;;;0.00;0.00;;;;;;;6.15;86.50;100974.00;4869685;29;20556;-75
2023/11/24 07:38:24;;;;;;;0.00;0.00;;;;;;;6.09;86.70;100976.56;4851217;29;20116;-75
2023/11/24 07:40:50;;;;;;;0.00;0.00;;;;;;;6.06;86.78;100966.16;4837918;29;20040;-75
2023/11/24 07:43:16;;;;;;;0.00;0.00;;;;;;;6.13;86.82;100970.69;4855606;29;20036;-75
2023/11/24 07:45:42;;;;;;;0.00;0.00;;;;;;;6.14;86.78;100975.06;4870335;29;20025;-75
2023/11/24 07:48:07;;;;;;;0.00;0.00;;;;;;;6.09;86.48;100968.41;4858599;29;20053;-76
2023/11/24 07:50:33;;;;;;;0.00;0.00;;;;;;;6.19;85.68;100980.66;4850242;29;20043;-75
2023/11/24 07:52:59;;;;;;;0.05;0.05;;;;;;;6.22;85.39;100978.31;4868401;29;20577;-75
2023/11/24 07:55:24;;;;;;;0.00;0.00;;;;;;;6.27;85.51;100977.66;4860600;29;20041;-75
2023/11/24 07:57:49;;;;;;;0.00;0.00;;;;;;;6.28;85.29;100963.84;4868731;29;20048;-76
2023/11/24 08:00:17;;;;;;;0.00;0.00;;;;;;;6.35;85.33;100974.66;4834875;29;20049;-75
2023/11/24 08:02:45;;;;;;;0.00;0.00;;;;;;;6.36;84.80;100970.88;4842648;29;20057;-78
2023/11/24 08:05:11;;;;;;;0.00;0.00;;;;;;;6.53;84.19;100984.69;4831784;29;20044;-75
2023/11/24 08:07:40;;;;;;;0.00;0.00;;;;;;;6.47;84.44;100961.16;4869182;29;20120;-75
2023/11/24 08:10:06;;;;;;;0.00;0.00;;;;;;;6.49;84.79;100945.44;4859362;29;20131;-76
2023/11/24 08:12:31;;;;;;;0.00;0.00;;;;;;;6.44;84.01;100924.41;4837596;29;20043;-74
2023/11/24 08:14:58;;;;;;;0.00;0.00;;;;;;;6.78;83.38;100965.59;4850863;29;20093;-75
2023/11/24 08:17:23;;;;;;;0.00;0.00;;;;;;;6.82;83.55;100964.09;4871402;29;20500;-75
2023/11/24 08:19:49;;;;;;;0.00;0.00;;;;;;;6.89;83.24;100963.16;4827137;29;20124;-75
2023/11/24 08:22:14;;;;;;;0.00;0.00;;;;;;;7.04;82.97;100970.91;4850569;29;20701;-74
2023/11/24 08:24:42;;;;;;;0.00;0.00;;;;;;;7.18;82.26;100974.31;4848938;29;20835;-74
2023/11/24 08:27:07;;;;;;;0.00;0.00;;;;;;;7.30;82.00;100959.69;4833098;29;20122;-76
2023/11/24 08:29:33;;;;;;;0.00;0.00;;;;;;;7.47;81.73;100975.38;4859387;29;20044;-76
2023/11/24 08:31:59;;;;;;;0.10;0.10;;;;;;;7.62;81.08;100966.75;4849259;29;20036;-74
2023/11/24 08:34:24;;;;;;;0.00;0.00;;;;;;;7.83;80.47;100968.13;4869857;29;20028;-74
2023/11/24 08:36:50;;;;;;;0.00;0.00;;;;;;;8.08;80.20;100965.19;4867309;29;20043;-75
2023/11/24 08:39:15;;;;;;;0.00;0.00;;;;;;;8.30;79.61;100965.41;4868534;29;20180;-75
2023/11/24 08:41:44;;;;;;;0.00;0.00;;;;;;;8.37;78.51;100955.22;4867972;29;20495;-76
2023/11/24 08:44:12;;;;;;;0.00;0.00;;;;;;;8.55;77.63;100953.44;4866383;29;20033;-75
2023/11/24 08:46:38;;;;;;;0.00;0.00;;;;;;;8.69;77.43;100948.56;4826143;29;20047;-75
2023/11/24 08:49:03;;;;;;;0.00;0.00;;;;;;;8.77;76.77;100959.09;4863774;29;20028;-76
2023/11/24 08:51:28;;;;;;;0.00;0.00;;;;;;;8.80;76.93;100960.50;4872741;29;20161;-75
2023/11/24 08:53:54;;;;;;;0.00;0.00;;;;;;;8.82;76.04;100948.31;4831875;29;20026;-77
2023/11/24 08:56:20;;;;;;;0.00;0.00;;;;;;;9.13;75.91;100957.09;4853861;29;20112;-75
2023/11/24 08:58:46;;;;;;;0.10;0.10;;;;;;;9.29;74.14;100957.38;4865672;29;20036;-73
2023/11/24 09:01:12;;;;;;;0.00;0.00;;;;;;;9.44;74.04;100960.38;4868587;29;20081;-76
2023/11/24 09:03:40;;;;;;;0.00;0.00;;;;;;;9.60;73.00;100959.56;4821868;29;20381;-76
2023/11/24 09:06:06;;;;;;;0.00;0.00;;;;;;;9.91;71.77;100965.56;4851610;29;20048;-74
2023/11/24 09:08:31;;;;;;;0.00;0.00;;;;;;;10.10;69.74;100963.41;4871413;29;20045;-74
2023/11/24 09:10:57;;;;;;;0.00;0.00;;;;;;;10.28;69.17;100945.91;4846521;29;20029;-75
2023/11/24 09:13:22;;;;;;;0.00;0.00;;;;;;;10.57;68.73;100951.28;4823668;29;20040;-74
2023/11/24 09:15:52;;;;;;;0.00;0.00;;;;;;;10.71;67.30;100959.09;4870331;29;20033;-74
2023/11/24 09:18:17;;;;;;;0.00;0.00;;;;;;;10.68;66.56;100952.22;4863249;29;20033;-77
2023/11/24 09:20:45;;;;;;;0.00;0.00;;;;;;;10.67;66.82;100939.63;4848879;29;20776;-76
2023/11/24 09:23:11;;;;;;;0.00;0.00;;;;;;;11.19;65.03;100943.78;4869896;29;20033;-75
2023/11/24 09:25:36;;;;;;;0.00;0.00;;;;;;;11.27;64.00;100946.06;4836762;29;20045;-74
2023/11/24 09:28:02;;;;;;;0.00;0.00;;;;;;;11.37;62.35;100948.06;4867153;29;20033;-75
2023/11/24 09:30:31;;;;;;;0.00;0.00;;;;;;;11.38;62.22;100937.97;4864284;29;20036;-74
2023/11/24 09:32:56;;;;;;;0.00;0.00;;;;;;;11.51;61.48;100959.44;4850841;29;20036;-76
2023/11/24 09:35:25;;;;;;;0.00;0.00;;;;;;;11.57;61.03;100947.44;4854769;29;20029;-74
2023/11/24 09:37:54;;;;;;;0.00;0.00;;;;;;;11.63;61.83;100957.34;4850456;29;20547;-74
2023/11/24 09:40:22;;;;;;;0.03;0.03;;;;;;;11.87;60.92;100951.53;4863765;29;20063;-75
2023/11/24 09:42:51;;;;;;;0.00;0.00;;;;;;;12.12;60.71;100936.38;4867701;29;20361;-75
2023/11/24 09:45:19;;;;;;;0.00;0.00;;;;;;;13.56;58.03;100947.97;4867809;29;20061;-74
2023/11/24 09:47:49;;;;;;;0.00;0.00;;;;;;;15.61;54.49;100931.88;4825871;29;20439;-75
2023/11/24 09:50:25;;;;;;;0.00;0.00;;;;;;;15.93;48.99;100941.59;4866282;29;20029;-75
2023/11/24 09:52:54;;;;;;;0.00;0.00;;;;;;;15.26;50.12;100940.13;4831540;29;20037;-75
2023/11/24 09:55:21;;;;;;;0.00;0.00;;;;;;;14.71;50.68;100929.13;4829684;29;20057;-75
2023/11/24 09:57:46;;;;;;;0.00;0.00;;;;;;;14.65;52.04;100894.47;4841617;29;20026;-75
2023/11/24 10:00:15;;;;;;;0.00;0.00;;;;;;;14.94;51.34;100932.34;4849204;29;20033;-75
2023/11/24 10:02:41;;;;;;;0.00;0.00;;;;;;;14.39;51.57;100927.53;4851572;29;20061;-74
2023/11/24 10:05:07;;;;;;;0.00;0.00;;;;;;;13.84;52.22;100907.28;4852579;29;20057;-73
2023/11/24 10:07:35;;;;;;;0.00;0.00;;;;;;;13.61;52.89;100918.56;4869137;29;20113;-74
2023/11/24 10:10:04;;;;;;;0.00;0.00;;;;;;;13.64;53.17;100914.44;4865310;29;20025;-74
2023/11/24 10:12:30;;;;;;;0.00;0.00;;;;;;;13.99;52.42;100918.28;4817568;29;20057;-75
2023/11/24 10:14:56;;;;;;;0.00;0.00;;;;;;;14.07;52.37;100912.19;4872974;29;20107;-75
2023/11/24 10:17:23;;;;;;;0.00;0.00;;;;;;;14.34;51.91;100922.06;4874858;29;20111;-77
2023/11/24 10:19:52;;;;;;;0.00;0.00;;;;;;;14.15;51.57;100916.34;4869304;29;20045;-75
2023/11/24 10:22:20;;;;;;;0.00;0.00;;;;;;;13.88;51.86;100916.63;4851458;29;20025;-74
2023/11/24 10:24:47;;;;;;;0.00;0.00;;;;;;;13.52;51.27;100913.88;4874284;29;20389;-77
2023/11/24 10:27:21;;;;;;;0.00;0.00;;;;;;;13.20;52.86;100912.16;4835848;29;20061;-76
2023/11/24 10:29:48;;;;;;;0.00;0.00;;;;;;;15.85;49.94;100930.06;4873403;29;20037;-75
2023/11/24 10:32:18;;;;;;;0.00;0.00;;;;;;;19.78;41.06;100927.97;4871798;29;20088;-74
2023/11/24 10:34:46;;;;;;;0.00;0.00;;;;;;;22.88;36.53;100933.91;4853821;29;20025;-79
2023/11/24 10:37:16;;;;;;;0.00;0.00;;;;;;;23.41;32.84;100940.81;4839477;29;20032;-77
2023/11/24 10:39:45;;;;;;;0.00;0.00;;;;;;;22.03;34.99;100922.47;4853931;29;20031;-76
2023/11/24 10:42:11;;;;;;;0.00;0.00;;;;;;;20.17;35.95;100932.00;4872622;29;20127;-76
2023/11/24 10:44:43;;;;;;;0.00;0.00;;;;;;;17.75;38.52;100929.63;4867114;29;20037;-76
2023/11/24 10:47:11;;;;;;;0.00;0.00;;;;;;;16.36;42.56;100928.75;4869345;29;20483;-75
2023/11/24 10:49:57;;;;;;;0.00;0.00;;;;;;;15.12;44.60;100925.34;4869497;29;20157;-76
2023/11/24 10:52:31;;;;;;;0.00;0.00;;;;;;;14.17;46.65;100930.63;4865325;29;20658;-74
2023/11/24 10:55:00;;;;;;;0.00;0.00;;;;;;;13.62;48.33;100935.88;4869072;29;20480;-75
2023/11/24 10:57:30;;;;;;;0.00;0.00;;;;;;;13.10;49.36;100937.69;4862502;29;21056;-75
2023/11/24 10:59:57;;;;;;;0.00;0.00;;;;;;;12.73;50.35;100928.50;4844617;29;20048;-75
2023/11/24 11:02:25;;;;;;;0.00;0.00;;;;;;;12.52;51.45;100937.72;4865288;29;20037;-76
2023/11/24 11:05:23;;;;;;;0.00;0.00;;;;;;;12.33;51.84;100938.19;4858772;29;20413;-76
2023/11/24 11:08:08;;;;;;;0.00;0.00;;;;;;;12.20;53.07;100944.13;4866311;29;20132;-74
2023/11/24 11:10:36;;;;;;;;;;;;;;;12.07;53.50;100939.09;4854812;29;20029;-76
2023/11/24 11:13:03;;;;;;;0.00;0.00;;;;;;;11.90;53.14;100926.38;4852285;29;19992;-75
2023/11/24 11:15:32;;;;;;;0.00;0.00;;;;;;;11.85;53.55;100931.78;4862058;29;20125;-75
2023/11/24 11:18:14;;;;;;;0.00;0.00;;;;;;;11.73;54.07;100920.19;4840799;29;20045;-75
2023/11/24 11:20:44;;;;;;;0.00;0.00;;;;;;;11.66;54.03;100913.00;4867765;29;20020;-74
2023/11/24 11:23:14;;;;;;;0.00;0.00;;;;;;;11.75;54.78;100909.78;4872456;29;20033;-75
2023/11/24 11:25:42;;;;;;;0.00;0.00;;;;;;;11.86;54.23;100919.75;4844735;29;20061;-75
2023/11/24 11:28:20;;;;;;;0.00;0.00;;;;;;;12.13;54.55;100927.09;4840880;29;20154;-75